createdAt,value
2023-03-11T00:04:54.161Z,0.04
2023-03-11T00:09:53.707Z,0.04
2023-03-11T00:15:46.603Z,0.05
2023-03-11T00:19:53.191Z,0.04
2023-03-11T00:24:52.816Z,0.04
2023-03-11T00:29:53.319Z,0.04
2023-03-11T00:34:52.370Z,0.05
2023-03-11T00:39:53.211Z,0.04
2023-03-11T00:44:50.028Z,0.04
2023-03-11T00:49:49.311Z,0.04
2023-03-11T00:54:48.794Z,0.04
2023-03-11T00:59:13.234Z,0.05
2023-03-11T01:04:12.968Z,0.04
2023-03-11T01:09:12.859Z,0.04
2023-03-11T01:14:12.152Z,0.04
2023-03-11T01:19:13.260Z,0.04
2023-03-11T01:24:09.480Z,0.05
2023-03-11T01:29:09.716Z,0.04
2023-03-11T01:34:08.794Z,0.04
2023-03-11T01:39:09.055Z,0.04
2023-03-11T01:44:06.620Z,0.04
2023-03-11T01:49:06.258Z,0.05
2023-03-11T01:54:05.741Z,0.04
2023-03-11T01:58:52.371Z,0.04
2023-03-11T02:03:52.090Z,0.04
2023-03-11T02:08:52.551Z,0.04
2023-03-11T02:13:52.595Z,0.04
2023-03-11T02:18:52.142Z,0.05
2023-03-11T02:23:49.639Z,0.04
2023-03-11T02:28:49.269Z,0.04
2023-03-11T02:33:48.543Z,0.04
2023-03-11T02:38:48.157Z,0.05
2023-03-11T02:43:48.599Z,0.05
2023-03-11T02:48:47.285Z,0.04
2023-03-11T02:53:47.178Z,0.05
2023-03-11T02:58:46.621Z,0.04
2023-03-11T03:03:47.946Z,0.04
2023-03-11T03:08:54.532Z,0.04
2023-03-11T03:13:54.009Z,0.04
2023-03-11T03:18:55.021Z,0.04
2023-03-11T03:23:53.269Z,0.04
2023-03-11T03:28:52.396Z,0.04
2023-03-11T03:33:52.351Z,0.04
2023-03-11T03:38:50.953Z,0.04
2023-03-11T03:43:50.953Z,0.05
2023-03-11T03:48:50.849Z,0.05
2023-03-11T03:53:52.365Z,0.05
2023-03-11T03:58:49.269Z,0.05
2023-03-11T04:00:14.140Z,0.04
2023-03-11T04:05:12.081Z,0.04
2023-03-11T04:10:09.049Z,0.04
2023-03-11T04:15:08.675Z,0.05
2023-03-11T04:20:07.729Z,0.04
2023-03-11T04:25:07.478Z,0.05
2023-03-11T04:30:05.298Z,0.04
2023-03-11T04:35:04.694Z,0.05
2023-03-11T04:40:04.516Z,0.05
2023-03-11T04:45:04.080Z,0.05
2023-03-11T04:50:03.336Z,0.05
2023-03-11T04:55:03.080Z,0.05
2023-03-11T04:59:23.517Z,0.05
2023-03-11T05:04:23.081Z,0.05
2023-03-11T05:09:24.003Z,0.05
2023-03-11T05:14:19.823Z,0.05
2023-03-11T05:19:19.801Z,0.05
2023-03-11T05:24:18.981Z,0.05
2023-03-11T05:29:18.847Z,0.06
2023-03-11T05:34:16.247Z,0.08
2023-03-11T05:39:16.021Z,0.12
2023-03-11T05:44:15.383Z,0.19
2023-03-11T05:49:16.466Z,0.25
2023-03-11T05:54:13.136Z,0.29
2023-03-11T05:59:10.280Z,0.41
2023-03-11T06:04:10.032Z,0.55
2023-03-11T06:09:09.380Z,0.7
2023-03-11T06:14:07.473Z,0.88
2023-03-11T06:19:06.942Z,1.09
2023-03-11T06:24:06.684Z,1.34
2023-03-11T06:29:06.088Z,1.55
2023-03-11T06:34:05.741Z,1.75
2023-03-11T06:39:05.526Z,2.01
2023-03-11T06:44:05.700Z,2.28
2023-03-11T06:49:05.368Z,2.54
2023-03-11T06:54:06.473Z,2.97
2023-03-11T06:58:50.214Z,3.23
2023-03-11T07:03:51.190Z,3.43
2023-03-11T07:08:50.518Z,3.69
2023-03-11T07:13:50.320Z,4.21
2023-03-11T07:18:48.496Z,4.75
2023-03-11T07:23:49.528Z,5.14
2023-03-11T07:28:49.904Z,5.54
2023-03-11T07:33:50.863Z,5.93
2023-03-11T07:38:47.630Z,6.34
2023-03-11T07:43:47.828Z,6.76
2023-03-11T07:48:47.248Z,7.22
2023-03-11T07:53:47.636Z,7.67
2023-03-11T07:58:55.925Z,8.13
2023-03-11T08:03:55.792Z,8.59
2023-03-11T08:08:56.135Z,8.99
2023-03-11T08:13:54.874Z,7.07
2023-03-11T08:18:55.333Z,10.31
2023-03-11T08:23:55.024Z,10.59
2023-03-11T08:28:55.928Z,11.35
2023-03-11T08:33:53.625Z,11.38
2023-03-11T08:38:53.827Z,11.74
2023-03-11T08:43:55.507Z,8.63
2023-03-11T08:48:52.103Z,12.31
2023-03-11T08:53:52.258Z,12.58
2023-03-11T08:58:52.317Z,13.64
2023-03-11T09:00:15.209Z,11.44
2023-03-11T09:05:12.963Z,13.27
2023-03-11T09:10:11.949Z,13.98
2023-03-11T09:15:12.851Z,13.35
2023-03-11T09:20:09.039Z,15.97
2023-03-11T09:25:09.011Z,16.03
2023-03-11T09:30:08.238Z,9.31
2023-03-11T09:35:08.051Z,9.28
2023-03-11T09:40:05.681Z,9.93
2023-03-11T09:45:05.374Z,16.95
2023-03-11T09:50:04.300Z,14.57
2023-03-11T09:55:04.123Z,16.41
2023-03-11T09:59:24.874Z,16.81
2023-03-11T10:04:24.902Z,15.68
2023-03-11T10:09:25.069Z,19.99
2023-03-11T10:14:24.866Z,19.8
2023-03-11T10:19:26.337Z,19.45
2023-03-11T10:24:23.337Z,18.48
2023-03-11T10:29:23.658Z,18.86
2023-03-11T10:34:23.610Z,9.29
2023-03-11T10:39:23.364Z,9.22
2023-03-11T10:44:22.630Z,19.79
2023-03-11T10:49:22.453Z,14.4
2023-03-11T10:54:21.900Z,11.06
2023-03-11T10:59:10.324Z,12.31
2023-03-11T11:04:07.136Z,18.65
2023-03-11T11:09:07.893Z,22.26
2023-03-11T11:14:06.757Z,22.54
2023-03-11T11:19:07.020Z,9.12
2023-03-11T11:24:04.676Z,9.29
2023-03-11T11:29:03.836Z,13.78
2023-03-11T11:34:02.996Z,23.72
2023-03-11T11:39:03.880Z,13.68
2023-03-11T11:44:02.592Z,24.67
2023-03-11T11:49:02.693Z,11.56
2023-03-11T11:54:02.884Z,10.47
2023-03-11T11:58:48.896Z,17.45
2023-03-11T12:03:50.687Z,10.47
2023-03-11T12:08:46.348Z,9.75
2023-03-11T12:13:46.345Z,8.65
2023-03-11T12:18:56.365Z,9.22
2023-03-11T12:23:57.112Z,11.5
2023-03-11T12:28:53.624Z,10.78
2023-03-11T12:33:53.948Z,22.37
2023-03-11T12:38:52.875Z,22.09
2023-03-11T12:43:54.016Z,22.84
2023-03-11T12:48:54.147Z,21.59
2023-03-11T12:53:54.769Z,22.55
2023-03-11T12:58:52.600Z,21.26
2023-03-11T13:03:52.938Z,20.33
2023-03-11T13:08:54.477Z,20.11
2023-03-11T13:13:51.473Z,20.11
2023-03-11T13:18:51.635Z,19
2023-03-11T13:23:51.678Z,18.62
2023-03-11T13:28:49.791Z,18.63
2023-03-11T13:33:39.078Z,18.73
2023-03-11T13:38:39.033Z,17.94
2023-03-11T13:43:38.575Z,13.07
2023-03-11T13:48:39.669Z,15.56
2023-03-11T13:53:37.654Z,14.64
2023-03-11T13:58:37.565Z,15.88
2023-03-11T13:59:59.932Z,15.03
2023-03-11T14:04:59.413Z,14.77
2023-03-11T14:09:58.655Z,11.38
2023-03-11T14:14:58.015Z,11.53
2023-03-11T14:19:57.254Z,11.93
2023-03-11T14:24:56.886Z,10.86
2023-03-11T14:29:56.656Z,10.71
2023-03-11T14:34:56.217Z,9.99
2023-03-11T14:39:57.185Z,10.01
2023-03-11T14:44:53.667Z,9.8
2023-03-11T14:49:53.546Z,8.27
2023-03-11T14:54:53.002Z,8.12
2023-03-11T14:59:15.234Z,7.31
2023-03-11T15:04:11.181Z,6.73
2023-03-11T15:09:10.988Z,5.5
2023-03-11T15:14:10.037Z,5.18
2023-03-11T15:19:09.580Z,4.81
2023-03-11T15:24:07.483Z,4.75
2023-03-11T15:29:09.017Z,3.82
2023-03-11T15:34:06.554Z,3.1
2023-03-11T15:39:06.290Z,3.18
2023-03-11T15:44:03.808Z,3.22
2023-03-11T15:49:03.438Z,3.36
2023-03-11T15:54:03.076Z,3.49
2023-03-11T15:59:02.605Z,3.49
2023-03-11T16:04:02.117Z,3.21
2023-03-11T16:09:01.830Z,2.78
2023-03-11T16:14:01.273Z,2.42
2023-03-11T16:19:00.679Z,2.11
2023-03-11T16:24:02.321Z,1.88
2023-03-11T16:29:20.172Z,1.73
2023-03-11T16:33:58.161Z,1.62
2023-03-11T16:38:57.483Z,1.45
2023-03-11T16:43:57.410Z,1.32
2023-03-11T16:48:55.117Z,1.2
2023-03-11T16:53:54.816Z,1.02
2023-03-11T16:58:53.735Z,0.87
2023-03-11T17:00:14.839Z,0.83
2023-03-11T17:05:14.514Z,0.67
2023-03-11T17:10:14.086Z,0.52
2023-03-11T17:15:13.783Z,0.39
2023-03-11T17:20:14.750Z,0.28
2023-03-11T17:25:10.716Z,0.25
2023-03-11T17:30:10.722Z,0.17
2023-03-11T17:35:10.013Z,0.11
2023-03-11T17:40:10.001Z,0.07
2023-03-11T17:45:07.064Z,0.06
2023-03-11T17:50:07.207Z,0.05
2023-03-11T17:55:06.054Z,0.05
2023-03-11T17:59:26.889Z,0.04
2023-03-11T18:04:26.653Z,0.04
2023-03-11T18:09:26.001Z,0.04
2023-03-11T18:14:26.058Z,0.04
2023-03-11T18:19:26.096Z,0.04
2023-03-11T18:24:26.976Z,0.04
2023-03-11T18:29:25.080Z,0.04
2023-03-11T18:34:23.040Z,0.04
2023-03-11T18:39:23.649Z,0.04
2023-03-11T18:44:22.509Z,0.04
2023-03-11T18:49:22.695Z,0.04
2023-03-11T18:54:23.351Z,0.04
2023-03-11T18:59:10.648Z,0.04
2023-03-11T19:04:12.259Z,0.04
2023-03-11T19:09:08.937Z,0.04
2023-03-11T19:15:02.330Z,0.05
2023-03-11T19:19:11.765Z,0.04
2023-03-11T19:24:07.525Z,0.04
2023-03-11T19:29:07.324Z,0.04
2023-03-11T19:34:07.244Z,0.04
2023-03-11T19:39:07.895Z,0.04
2023-03-11T19:44:04.341Z,0.05
2023-03-11T19:49:04.292Z,0.05
2023-03-11T19:54:04.001Z,0.04
2023-03-11T19:58:50.514Z,0.04
2023-03-11T20:03:47.935Z,0.04
2023-03-11T20:08:47.968Z,0.04
2023-03-11T20:13:46.870Z,0.04
2023-03-11T20:18:47.482Z,0.04
2023-03-11T20:23:54.230Z,0.05
2023-03-11T20:28:53.850Z,0.05
2023-03-11T20:33:54.102Z,0.05
2023-03-11T20:38:52.268Z,0.05
2023-03-11T20:43:52.218Z,0.05
2023-03-11T20:48:52.300Z,0.04
2023-03-11T20:53:50.725Z,0.05
2023-03-11T20:58:51.256Z,0.05
2023-03-11T21:03:50.904Z,0.05
2023-03-11T21:08:40.885Z,0.05
2023-03-11T21:13:37.047Z,0.04
2023-03-11T21:18:36.866Z,0.04
2023-03-11T21:23:36.177Z,0.04
2023-03-11T21:28:36.152Z,0.04
2023-03-11T21:33:34.271Z,0.04
2023-03-11T21:38:34.241Z,0.04
2023-03-11T21:43:33.394Z,0.04
2023-03-11T21:48:32.764Z,0.05
2023-03-11T21:53:31.992Z,0.05
2023-03-11T21:58:32.700Z,0.05
2023-03-11T21:59:54.117Z,0.04
2023-03-11T22:04:54.798Z,0.05
2023-03-11T22:09:51.579Z,0.05
2023-03-11T22:14:52.046Z,0.05
2023-03-11T22:19:50.498Z,0.05
2023-03-11T22:24:50.026Z,0.05
2023-03-11T22:29:49.082Z,0.04
2023-03-11T22:34:48.945Z,0.05
2023-03-11T22:39:48.972Z,0.05
2023-03-11T22:44:48.538Z,0.04
2023-03-11T22:49:49.677Z,0.05
2023-03-11T22:54:46.148Z,0.04
2023-03-11T22:58:56.427Z,0.04
2023-03-11T23:03:56.199Z,0.04
2023-03-11T23:08:55.643Z,0.05
2023-03-11T23:13:53.462Z,0.05
2023-03-11T23:18:53.696Z,0.04
2023-03-11T23:23:53.818Z,0.04
2023-03-11T23:28:52.852Z,0.04
2023-03-11T23:33:50.300Z,0.05
2023-03-11T23:38:50.263Z,0.05
2023-03-11T23:43:49.719Z,0.04
2023-03-11T23:48:49.328Z,0.05
2023-03-11T23:53:47.040Z,0.05
2023-03-11T23:58:46.570Z,0.05
